Wells, United Kingdom
Current Conditions -  °F | °C
As of 8:20 PM on Monday 26 Jan 2015 (Local Time) from EGGD Reporting Station
Clear Clear  
Wind Chill: 31°   Ceiling: Unl
Heat Index: 37°   Visibility: 6mi
Dew Point: 34°   Wind: 9mph
Humidity: 87%   Direction: 300°WNW
Pressure: 30.39"   Gusts: NA
Location:  51.21°N, 2.65°W
Report Text: EGGD 262020Z 30008KT CAVOK 03/01 Q1029
Loading
Personal Weather Stations






























Interactive Weather Map New forecast layout! Learn more

10-Day Weather Forecast

Advertisements
Track Severe Weather on mobile